Time;durP1;ratioP1;P1;durP2;ratioP2;P2;SDS_P1;SDS_P2;PMS_P1;PMS_P2;Temp;Humidity;BMP_temperature;BMP_pressure;BME280_temperature;BME280_humidity;BME280_pressure;Samples;Min_cycle;Max_cycle;Signal;HPM_P1;HPM_P2
2021/09/27 00:00:58;;;;;;;12.60;6.90;;;;;;;9.34;84.33;101180.67;93802;1196;80518;-61
2021/09/27 00:03:06;;;;;;;14.20;8.00;;;;;;;9.36;84.28;101177.95;93777;1196;99870;-61
2021/09/27 00:05:14;;;;;;;11.90;6.50;;;;;;;9.40;84.36;101176.71;93671;1196;87873;-60
2021/09/27 00:07:22;;;;;;;12.50;7.00;;;;;;;9.49;84.58;101173.59;93744;1196;94395;-61
2021/09/27 00:09:32;;;;;;;16.30;7.80;;;;;;;9.60;84.65;101174.27;93804;1196;78769;-62
2021/09/27 00:11:38;;;;;;;12.20;6.50;;;;;;;9.71;84.73;101172.67;93804;1195;81953;-62
2021/09/27 00:13:50;;;;;;;14.30;6.90;;;;;;;9.78;84.65;101174.27;93886;1196;100094;-61
2021/09/27 00:15:58;;;;;;;11.30;6.00;;;;;;;9.85;84.63;101168.86;93848;1196;88155;-60
2021/09/27 00:18:02;;;;;;;12.00;5.50;;;;;;;9.89;84.64;101170.66;93821;1196;91700;-64
2021/09/27 00:20:10;;;;;;;8.90;5.20;;;;;;;9.97;84.61;101169.80;93691;1196;77610;-61
2021/09/27 00:22:14;;;;;;;9.90;4.90;;;;;;;10.04;84.63;101171.21;93819;1196;82192;-62
2021/09/27 00:24:19;;;;;;;10.90;5.70;;;;;;;10.12;84.48;101169.81;93780;1196;99591;-58
2021/09/27 00:26:25;;;;;;;8.50;4.60;;;;;;;10.18;84.36;101165.45;93808;1195;86681;-60
2021/09/27 00:28:29;;;;;;;8.60;4.20;;;;;;;10.24;84.38;101162.59;93756;1196;93519;-60
2021/09/27 00:30:37;;;;;;;11.20;4.90;;;;;;;10.32;84.23;101166.31;93768;1196;79716;-61
2021/09/27 00:32:42;;;;;;;11.70;4.60;;;;;;;10.37;84.19;101159.48;93815;1196;80619;-63
2021/09/27 00:34:47;;;;;;;9.90;4.50;;;;;;;10.39;84.06;101159.41;93797;1196;99386;-61
2021/09/27 00:36:51;;;;;;;10.30;4.80;;;;;;;10.41;83.97;101157.29;93811;1196;87727;-62
2021/09/27 00:38:55;;;;;;;11.50;4.70;;;;;;;10.41;83.92;101157.93;93809;1196;94442;-61
2021/09/27 00:41:03;;;;;;;8.10;4.40;;;;;;;10.42;83.81;101156.92;93725;1196;81909;-61
2021/09/27 00:43:09;;;;;;;10.30;4.50;;;;;;;10.43;83.78;101160.42;93808;1196;80844;-63
2021/09/27 00:45:15;;;;;;;10.10;5.10;;;;;;;10.43;83.64;101158.13;93834;1196;98206;-62
2021/09/27 00:47:19;;;;;;;9.40;4.40;;;;;;;10.43;83.67;101156.81;93794;1196;87034;-60
2021/09/27 00:49:24;;;;;;;7.90;3.80;;;;;;;10.47;83.57;101154.61;93781;1196;93971;-61
2021/09/27 00:51:32;;;;;;;8.90;4.60;;;;;;;10.48;83.41;101153.98;93749;1196;80522;-60
2021/09/27 00:53:40;;;;;;;8.60;4.20;;;;;;;10.46;83.45;101150.00;93828;1196;82353;-62
2021/09/27 00:55:48;;;;;;;10.90;4.20;;;;;;;10.46;83.38;101149.96;93796;1196;98738;-62
2021/09/27 00:57:54;;;;;;;9.30;4.00;;;;;;;10.48;83.39;101149.95;93746;1196;88213;-61
2021/09/27 00:59:58;;;;;;;8.50;4.20;;;;;;;10.50;83.29;101154.64;93705;1196;93778;-60
2021/09/27 01:02:03;;;;;;;9.50;4.50;;;;;;;10.49;83.27;101153.84;93721;1196;81633;-60
2021/09/27 01:04:09;;;;;;;7.80;4.20;;;;;;;10.48;83.18;101155.19;93793;1196;81024;-62
2021/09/27 01:06:35;;;;;;;10.60;4.50;;;;;;;10.46;83.10;101157.21;93707;1196;100329;-62
2021/09/27 01:08:53;;;;;;;7.80;4.10;;;;;;;10.44;83.11;101155.79;93811;1196;86877;-62
2021/09/27 01:11:18;;;;;;;12.20;5.10;;;;;;;10.45;83.06;101154.58;93800;1196;94554;-63
2021/09/27 01:13:54;;;;;;;8.80;4.50;;;;;;;10.44;83.02;101149.21;93763;1196;81948;-61
2021/09/27 01:16:14;;;;;;;11.00;5.20;;;;;;;10.41;82.97;101147.50;93771;1196;81502;-62
2021/09/27 01:18:32;;;;;;;9.80;4.60;;;;;;;10.40;82.88;101146.21;93784;1196;99722;-62
2021/09/27 01:21:08;;;;;;;6.80;3.90;;;;;;;10.41;82.82;101146.29;93828;1196;87840;-63
2021/09/27 01:24:00;;;;;;;8.00;4.30;;;;;;;10.35;82.80;101150.02;93689;1196;94057;-63
2021/09/27 01:26:33;;;;;;;7.20;3.70;;;;;;;10.31;82.80;101149.56;93765;1196;80763;-61
2021/09/27 01:29:07;;;;;;;8.10;4.00;;;;;;;10.27;82.70;101149.50;93718;1196;82440;-61
2021/09/27 01:31:33;;;;;;;8.00;4.60;;;;;;;10.27;82.69;101150.85;93777;1196;100356;-61
2021/09/27 01:33:46;;;;;;;7.80;4.20;;;;;;;10.28;82.67;101151.11;93779;1196;87636;-63
2021/09/27 01:36:08;;;;;;;12.10;5.80;;;;;;;10.27;82.66;101153.94;93745;1196;92849;-61
2021/09/27 01:38:23;;;;;;;10.80;5.10;;;;;;;10.23;82.58;101154.05;93794;1196;80118;-61
2021/09/27 01:40:52;;;;;;;10.80;4.90;;;;;;;10.20;82.62;101158.90;93754;1196;82413;-59
2021/09/27 01:43:11;;;;;;;8.30;4.50;;;;;;;10.16;82.53;101162.95;93706;1196;99724;-59
2021/09/27 01:45:33;;;;;;;9.00;4.80;;;;;;;10.13;82.59;101166.71;93758;1196;88659;-59
2021/09/27 01:47:45;;;;;;;10.50;5.20;;;;;;;10.05;82.64;101165.55;93785;1196;93792;-59
2021/09/27 01:50:01;;;;;;;12.10;5.00;;;;;;;9.99;82.68;101162.92;93779;1196;80031;-62
2021/09/27 01:52:12;;;;;;;11.70;5.00;;;;;;;9.97;82.58;101161.90;93737;1196;80780;-62
2021/09/27 01:54:28;;;;;;;11.20;5.00;;;;;;;9.97;82.55;101160.11;93676;1196;99816;-62
2021/09/27 01:56:39;;;;;;;9.70;4.50;;;;;;;9.97;82.55;101156.71;93747;1196;88327;-61
2021/09/27 01:59:00;;;;;;;9.60;4.80;;;;;;;9.92;82.61;101158.08;93766;1196;94278;-63
2021/09/27 02:01:14;;;;;;;9.10;4.70;;;;;;;9.83;82.54;101157.33;93753;1196;78058;-60
2021/09/27 02:03:25;;;;;;;11.00;5.30;;;;;;;9.77;82.46;101153.45;93741;1196;81452;-60
2021/09/27 02:05:40;;;;;;;11.60;4.50;;;;;;;9.72;82.48;101155.44;93710;1196;99247;-63
2021/09/27 02:07:57;;;;;;;11.60;4.70;;;;;;;9.71;82.52;101159.05;93793;1196;86439;-62
2021/09/27 02:10:08;;;;;;;11.80;5.40;;;;;;;9.73;82.67;101163.33;93746;1196;92760;-60
2021/09/27 02:12:23;;;;;;;8.50;4.40;;;;;;;9.70;82.71;101169.88;93767;1196;79025;-61
2021/09/27 02:14:34;;;;;;;7.50;4.60;;;;;;;9.68;82.69;101169.59;93758;1196;81570;-60
2021/09/27 02:16:44;;;;;;;7.40;4.10;;;;;;;9.62;82.62;101169.55;93736;1196;98496;-60
2021/09/27 02:18:56;;;;;;;9.10;4.70;;;;;;;9.62;82.67;101170.12;93799;1196;86753;-60
2021/09/27 02:21:09;;;;;;;9.50;4.40;;;;;;;9.62;82.82;101167.52;93760;1196;93244;-62
2021/09/27 02:23:23;;;;;;;9.90;4.30;;;;;;;9.64;82.86;101165.20;93796;1196;78233;-62
2021/09/27 02:25:32;;;;;;;11.10;4.60;;;;;;;9.64;82.85;101164.29;93740;1196;82081;-62
2021/09/27 02:27:36;;;;;;;10.00;4.30;;;;;;;9.60;82.81;101164.48;93750;1196;98506;-62
2021/09/27 02:29:41;;;;;;;8.20;4.80;;;;;;;9.55;82.79;101162.95;93785;1196;86936;-62
2021/09/27 02:31:56;;;;;;;6.90;4.20;;;;;;;9.50;82.71;101167.35;93780;1196;93601;-60
2021/09/27 02:34:08;;;;;;;7.70;3.80;;;;;;;9.48;82.83;101170.52;93819;1196;79959;-62
2021/09/27 02:36:18;;;;;;;8.90;4.30;;;;;;;9.51;82.84;101173.61;93704;1195;80265;-62
2021/09/27 02:38:31;;;;;;;6.90;4.20;;;;;;;9.53;82.99;101173.16;93704;1195;100085;-63
2021/09/27 02:40:42;;;;;;;7.60;4.20;;;;;;;9.53;82.94;101171.55;93728;1196;87269;-63
2021/09/27 02:42:53;;;;;;;7.40;4.00;;;;;;;9.54;83.02;101170.58;93715;1196;93148;-63
2021/09/27 02:44:57;;;;;;;7.20;4.20;;;;;;;9.56;82.96;101170.95;93697;1196;81507;-62
2021/09/27 02:47:05;;;;;;;7.30;4.50;;;;;;;9.59;83.03;101174.23;93810;1196;80904;-62
2021/09/27 02:49:14;;;;;;;11.50;4.90;;;;;;;9.62;83.10;101169.74;93789;1196;99113;-61
2021/09/27 02:51:19;;;;;;;8.50;4.10;;;;;;;9.64;83.09;101172.73;93776;1196;87855;-59
2021/09/27 02:53:23;;;;;;;8.80;4.60;;;;;;;9.64;83.02;101170.69;93810;1196;93108;-60
2021/09/27 02:55:47;;;;;;;7.60;3.90;;;;;;;9.65;83.02;101171.23;93722;1196;80096;-61
2021/09/27 02:58:17;;;;;;;7.30;4.60;;;;;;;9.64;83.01;101170.03;93746;1196;79883;-60
2021/09/27 03:00:33;;;;;;;7.50;4.30;;;;;;;9.62;83.04;101168.08;93742;1196;99975;-62
2021/09/27 03:02:51;;;;;;;9.50;4.70;;;;;;;9.62;83.09;101165.80;93763;1196;88309;-62
2021/09/27 03:05:09;;;;;;;8.30;4.20;;;;;;;9.60;83.08;101162.79;93730;1196;92701;-63
2021/09/27 03:07:30;;;;;;;9.80;4.10;;;;;;;9.60;83.16;101164.72;93775;1196;80995;-63
2021/09/27 03:09:49;;;;;;;9.50;4.10;;;;;;;9.61;83.14;101166.39;93773;1196;80793;-61
2021/09/27 03:12:11;;;;;;;8.00;4.50;;;;;;;9.64;83.09;101167.68;93790;1196;99147;-60
2021/09/27 03:14:44;;;;;;;8.00;4.10;;;;;;;9.59;83.03;101165.39;93787;1184;86550;-60
2021/09/27 03:16:59;;;;;;;7.90;4.20;;;;;;;9.53;82.90;101169.11;93689;1196;93367;-60
2021/09/27 03:19:20;;;;;;;8.10;4.30;;;;;;;9.46;82.92;101165.55;93797;1196;81183;-60
2021/09/27 03:21:40;;;;;;;9.60;4.10;;;;;;;9.44;83.02;101170.40;93737;1195;82199;-61
2021/09/27 03:23:55;;;;;;;8.60;4.50;;;;;;;9.45;83.08;101168.05;93713;1196;98027;-61
2021/09/27 03:26:14;;;;;;;8.30;4.50;;;;;;;9.48;83.25;101169.10;93751;1196;86818;-63
2021/09/27 03:28:31;;;;;;;9.50;4.20;;;;;;;9.45;83.22;101171.91;93751;1196;92748;-62
2021/09/27 03:30:47;;;;;;;7.10;4.50;;;;;;;9.46;83.19;101172.70;93721;1196;80592;-60
2021/09/27 03:33:05;;;;;;;10.40;4.30;;;;;;;9.47;83.15;101172.17;93790;1196;80547;-60
2021/09/27 03:35:20;;;;;;;7.30;4.00;;;;;;;9.48;83.14;101170.98;93746;1196;98738;-59
2021/09/27 03:37:43;;;;;;;10.10;4.20;;;;;;;9.46;83.09;101173.23;93742;1196;86881;-60
2021/09/27 03:40:02;;;;;;;9.10;4.60;;;;;;;9.40;82.98;101172.77;93720;1196;93922;-68
2021/09/27 03:42:20;;;;;;;8.80;4.40;;;;;;;9.34;83.09;101171.15;93740;1196;80074;-62
2021/09/27 03:44:35;;;;;;;8.60;4.00;;;;;;;9.35;83.13;101173.39;93719;1196;82748;-62
2021/09/27 03:46:52;;;;;;;8.60;4.50;;;;;;;9.34;83.17;101170.18;93764;1196;99160;-62
2021/09/27 03:49:05;;;;;;;9.60;4.50;;;;;;;9.34;83.22;101168.17;93748;1196;87898;-60
2021/09/27 03:51:17;;;;;;;7.40;4.20;;;;;;;9.33;83.31;101167.24;93729;1196;93168;-61
2021/09/27 03:53:28;;;;;;;11.50;4.20;;;;;;;9.34;83.34;101164.45;93699;1196;79754;-61
2021/09/27 03:55:40;;;;;;;9.20;4.40;;;;;;;9.35;83.30;101166.30;93768;1196;82133;-61
2021/09/27 03:57:51;;;;;;;8.90;4.10;;;;;;;9.37;83.35;101160.52;93751;1196;99905;-61
2021/09/27 04:00:02;;;;;;;8.50;4.60;;;;;;;9.38;83.39;101158.48;93730;1196;87102;-59
2021/09/27 04:02:12;;;;;;;9.40;3.80;;;;;;;9.37;83.34;101154.93;93717;1196;93336;-61
2021/09/27 04:04:33;;;;;;;7.80;3.70;;;;;;;9.34;83.28;101155.30;93723;1196;80446;-62
2021/09/27 04:07:00;;;;;;;9.20;4.20;;;;;;;9.30;83.31;101155.04;93738;1196;81644;-66
2021/09/27 04:09:10;;;;;;;6.80;4.10;;;;;;;9.27;83.38;101154.09;93780;1196;100219;-62
2021/09/27 04:11:26;;;;;;;9.10;4.10;;;;;;;9.27;83.35;101151.39;93758;1195;88027;-62
2021/09/27 04:13:40;;;;;;;10.90;4.80;;;;;;;9.28;83.37;101152.02;93710;1195;93820;-63
2021/09/27 04:16:02;;;;;;;9.10;4.20;;;;;;;9.30;83.40;101153.90;93660;1196;79682;-60
2021/09/27 04:18:18;;;;;;;9.00;4.40;;;;;;;9.25;83.43;101156.90;93629;1196;80391;-61
2021/09/27 04:20:38;;;;;;;10.90;4.30;;;;;;;9.21;83.52;101156.83;93724;1196;99286;-62
2021/09/27 04:22:56;;;;;;;9.10;4.80;;;;;;;9.21;83.49;101157.27;93706;1196;86220;-65
2021/09/27 04:25:22;;;;;;;9.40;4.80;;;;;;;9.21;83.54;101154.36;93651;1196;93734;-60
2021/09/27 04:27:51;;;;;;;12.40;4.50;;;;;;;9.20;83.54;101156.81;93704;1196;78924;-59
2021/09/27 04:30:23;;;;;;;9.60;4.50;;;;;;;9.19;83.52;101160.52;93687;1196;82020;-59
2021/09/27 04:32:44;;;;;;;8.70;4.60;;;;;;;9.14;83.47;101159.96;93723;1196;98181;-60
2021/09/27 04:35:05;;;;;;;8.30;4.30;;;;;;;9.13;83.51;101159.35;93723;1195;86871;-61
2021/09/27 04:37:10;;;;;;;9.30;4.50;;;;;;;9.07;83.56;101159.66;93733;1196;92624;-59
2021/09/27 04:39:19;;;;;;;8.90;4.60;;;;;;;9.09;83.63;101158.99;93690;1196;78561;-62
2021/09/27 04:42:02;;;;;;;7.90;4.80;;;;;;;9.11;83.68;101157.46;93766;1196;82470;-66
2021/09/27 04:44:20;;;;;;;9.30;4.50;;;;;;;9.13;83.63;101162.35;93598;1200;98826;-63
2021/09/27 04:46:36;;;;;;;9.20;4.50;;;;;;;9.11;83.64;101162.46;93732;1196;86565;-63
2021/09/27 04:49:12;;;;;;;7.80;4.50;;;;;;;9.11;83.65;101164.06;93723;1196;94074;-63
2021/09/27 04:51:30;;;;;;;9.40;4.50;;;;;;;9.13;83.65;101161.70;93698;1196;79430;-62
2021/09/27 04:54:16;;;;;;;6.10;4.40;;;;;;;9.17;83.74;101171.48;93796;1195;80942;-64
2021/09/27 04:56:37;;;;;;;9.00;4.60;;;;;;;9.16;83.62;101174.29;93772;1195;98053;-59
2021/09/27 04:59:02;;;;;;;9.80;4.50;;;;;;;9.13;83.63;101174.10;93746;1195;88406;-61
2021/09/27 05:01:34;;;;;;;7.50;4.00;;;;;;;9.12;83.54;101177.05;93772;1196;94014;-64
2021/09/27 05:03:59;;;;;;;8.90;4.50;;;;;;;9.16;83.62;101176.79;93732;1196;78548;-64
2021/09/27 05:06:35;;;;;;;9.10;5.20;;;;;;;9.19;83.73;101175.25;93725;1196;80593;-63
2021/09/27 05:09:01;;;;;;;13.90;5.50;;;;;;;9.21;83.70;101176.48;93671;1195;98113;-63
2021/09/27 05:11:20;;;;;;;14.10;5.60;;;;;;;9.23;83.74;101172.64;93770;1196;87235;-64
2021/09/27 05:13:58;;;;;;;10.30;5.20;;;;;;;9.24;83.76;101169.28;93766;1195;94141;-63
2021/09/27 05:16:20;;;;;;;13.90;5.60;;;;;;;9.30;83.77;101173.20;93691;1196;78423;-63
2021/09/27 05:18:55;;;;;;;12.20;5.50;;;;;;;9.33;84.00;101169.77;93764;1196;79847;-63
2021/09/27 05:21:29;;;;;;;8.70;5.90;;;;;;;9.42;83.90;101167.94;93723;1196;98867;-59
2021/09/27 05:23:53;;;;;;;12.50;7.40;;;;;;;9.50;83.88;101162.73;93658;1196;88008;-61
2021/09/27 05:26:27;;;;;;;14.70;8.00;;;;;;;9.51;83.91;101160.08;93702;1196;94092;-61
2021/09/27 05:28:57;;;;;;;12.00;6.40;;;;;;;9.63;83.85;101160.64;93618;1196;79573;-60
2021/09/27 05:31:28;;;;;;;17.20;7.90;;;;;;;9.68;83.82;101162.75;93723;1196;81429;-59
2021/09/27 05:33:49;;;;;;;12.80;8.10;;;;;;;9.76;83.86;101158.05;93763;1195;100267;-60
2021/09/27 05:36:12;;;;;;;15.00;8.40;;;;;;;9.88;83.81;101161.10;93801;1195;88185;-60
2021/09/27 05:38:27;;;;;;;16.80;8.40;;;;;;;10.20;84.11;101161.05;93715;1196;95439;-59
2021/09/27 05:40:45;;;;;;;12.80;6.90;;;;;;;10.63;84.09;101164.86;93683;1196;79110;-60
2021/09/27 05:43:09;;;;;;;12.30;6.30;;;;;;;10.71;83.67;101164.89;93762;1196;81427;-60
2021/09/27 05:45:27;;;;;;;9.30;5.90;;;;;;;10.73;83.62;101168.23;93718;1195;98834;-63
2021/09/27 05:47:43;;;;;;;9.40;5.90;;;;;;;10.78;83.71;101173.63;93782;1195;86741;-62
2021/09/27 05:50:02;;;;;;;12.70;5.80;;;;;;;10.81;83.49;101177.27;93748;1195;93012;-63
2021/09/27 05:52:19;;;;;;;12.20;6.10;;;;;;;10.84;83.44;101174.88;93765;1196;78840;-64
2021/09/27 05:54:33;;;;;;;10.90;5.40;;;;;;;10.89;83.35;101177.73;93773;1195;80982;-60
2021/09/27 05:56:46;;;;;;;9.80;5.60;;;;;;;10.96;83.48;101180.41;93703;1195;99005;-59
2021/09/27 05:59:04;;;;;;;11.70;5.70;;;;;;;11.06;83.37;101183.59;93780;1195;87078;-61
2021/09/27 06:01:18;;;;;;;9.40;5.20;;;;;;;11.07;83.07;101178.41;93738;1196;94129;-60
2021/09/27 06:03:59;;;;;;;12.60;5.20;;;;;;;11.06;82.81;101177.78;93791;1196;79525;-62
2021/09/27 06:06:21;;;;;;;8.60;5.00;;;;;;;11.05;82.69;101178.48;93800;1196;81291;-63
2021/09/27 06:08:35;;;;;;;8.50;5.20;;;;;;;11.12;82.78;101183.95;93762;1196;99147;-63
2021/09/27 06:10:53;;;;;;;15.00;5.80;;;;;;;11.13;82.53;101181.80;93750;1196;86481;-64
2021/09/27 06:13:20;;;;;;;10.80;5.90;;;;;;;11.19;82.49;101180.60;93764;1195;92639;-64
2021/09/27 06:15:37;;;;;;;11.10;6.00;;;;;;;11.31;82.36;101182.91;93768;1195;78124;-64
2021/09/27 06:18:10;;;;;;;10.60;6.30;;;;;;;11.31;82.12;101184.91;93803;1195;81847;-64
2021/09/27 06:20:28;;;;;;;11.50;5.50;;;;;;;11.30;81.99;101185.73;93738;1196;100803;-64
2021/09/27 06:22:59;;;;;;;11.60;5.10;;;;;;;11.31;81.92;101184.33;93701;1196;87219;-62
2021/09/27 06:25:17;;;;;;;7.90;5.40;;;;;;;11.43;81.84;101182.15;93726;1196;92901;-65
2021/09/27 06:27:33;;;;;;;11.30;5.20;;;;;;;11.56;81.88;101182.90;93755;1196;78500;-63
2021/09/27 06:29:51;;;;;;;11.30;5.00;;;;;;;11.72;81.90;101179.72;93751;1195;81567;-64
2021/09/27 06:32:05;;;;;;;10.30;5.50;;;;;;;11.96;81.82;101176.89;93766;1195;100528;-65
2021/09/27 06:34:16;;;;;;;12.70;5.50;;;;;;;12.04;81.35;101179.98;93786;1195;86529;-60
2021/09/27 06:36:29;;;;;;;10.90;5.70;;;;;;;12.15;81.30;101177.90;93830;1195;94178;-60
2021/09/27 06:38:38;;;;;;;9.60;5.80;;;;;;;12.27;81.00;101174.86;93752;1196;78003;-61
2021/09/27 06:40:50;;;;;;;9.20;5.10;;;;;;;12.28;80.84;101177.77;93766;1196;81051;-63
2021/09/27 06:42:55;;;;;;;9.30;5.40;;;;;;;12.37;80.68;101174.52;93770;1195;100033;-65
2021/09/27 06:45:00;;;;;;;12.70;6.80;;;;;;;12.36;80.51;101176.21;93812;1195;86604;-57
2021/09/27 06:47:05;;;;;;;11.80;6.80;;;;;;;12.37;80.32;101173.59;93780;1195;94097;-61
2021/09/27 06:49:09;;;;;;;9.60;5.00;;;;;;;12.39;80.43;101170.41;93843;1195;78402;-64
2021/09/27 06:51:14;;;;;;;8.90;5.10;;;;;;;12.45;80.16;101172.64;93760;1195;81759;-65
2021/09/27 06:53:19;;;;;;;8.40;5.00;;;;;;;12.47;80.08;101169.89;93779;1195;98457;-64
2021/09/27 06:55:23;;;;;;;12.40;5.60;;;;;;;12.51;80.12;101170.19;93738;1195;88087;-64
2021/09/27 06:57:27;;;;;;;11.20;5.40;;;;;;;12.61;80.25;101168.56;93776;1195;94145;-66
2021/09/27 06:59:31;;;;;;;10.00;5.50;;;;;;;12.71;80.13;101173.16;93753;1195;79529;-62
2021/09/27 07:01:35;;;;;;;7.30;4.50;;;;;;;12.83;80.23;101169.89;93764;1195;80571;-60
2021/09/27 07:03:40;;;;;;;9.10;5.00;;;;;;;12.88;79.80;101171.46;93810;1189;99660;-60
2021/09/27 07:05:44;;;;;;;10.20;4.90;;;;;;;12.96;79.83;101174.52;93787;1195;86612;-62
2021/09/27 07:07:48;;;;;;;11.40;5.20;;;;;;;13.03;79.62;101172.83;93889;1195;94189;-62
2021/09/27 07:09:52;;;;;;;11.90;5.00;;;;;;;13.18;79.57;101174.06;93777;1195;77946;-65
2021/09/27 07:11:57;;;;;;;11.70;5.20;;;;;;;13.31;79.28;101170.98;93732;1196;81414;-63
2021/09/27 07:14:01;;;;;;;12.20;5.10;;;;;;;13.38;78.96;101170.84;93841;1195;98761;-62
2021/09/27 07:16:06;;;;;;;8.10;4.40;;;;;;;13.69;78.81;101168.48;93773;1195;87852;-64
2021/09/27 07:18:11;;;;;;;8.70;5.10;;;;;;;13.93;78.78;101168.80;93768;1195;94783;-64
2021/09/27 07:20:20;;;;;;;6.80;4.50;;;;;;;13.96;78.49;101166.06;93780;1195;79715;-64
2021/09/27 07:22:25;;;;;;;10.80;5.40;;;;;;;14.01;78.47;101162.44;93806;1195;81961;-64
2021/09/27 07:24:32;;;;;;;8.50;4.30;;;;;;;14.16;77.90;101167.13;93786;1195;100330;-61
2021/09/27 07:26:37;;;;;;;9.00;4.80;;;;;;;14.21;77.76;101169.09;93770;1195;87951;-63
2021/09/27 07:28:42;;;;;;;8.30;4.10;;;;;;;14.15;77.46;101167.64;93842;1195;94336;-60
2021/09/27 07:30:48;;;;;;;8.10;4.60;;;;;;;14.04;76.85;101169.54;93762;1195;78818;-67
2021/09/27 07:32:53;;;;;;;10.10;4.70;;;;;;;13.99;77.00;101168.44;93855;1195;81996;-63
2021/09/27 07:34:57;;;;;;;7.50;4.40;;;;;;;14.08;77.29;101167.15;93781;1196;100516;-64
2021/09/27 07:37:04;;;;;;;8.90;4.30;;;;;;;14.10;77.13;101165.16;93802;1196;88418;-63
2021/09/27 07:39:11;;;;;;;9.20;4.90;;;;;;;14.04;76.33;101163.93;93753;1195;94506;-63
2021/09/27 07:41:19;;;;;;;9.10;4.70;;;;;;;14.06;76.80;101165.00;93660;1196;78920;-61
2021/09/27 07:43:26;;;;;;;7.30;4.60;;;;;;;14.13;76.67;101159.02;93826;1195;81543;-60
2021/09/27 07:45:34;;;;;;;9.00;4.60;;;;;;;14.19;76.48;101161.20;93816;1195;99459;-63
2021/09/27 07:47:41;;;;;;;11.50;4.80;;;;;;;14.29;76.80;101167.46;93780;1195;87907;-63
2021/09/27 07:49:45;;;;;;;8.60;4.00;;;;;;;14.44;76.49;101167.63;93751;1195;94420;-60
2021/09/27 07:51:51;;;;;;;9.60;4.40;;;;;;;14.57;76.65;101164.93;93776;1195;78596;-60
2021/09/27 07:53:55;;;;;;;10.80;4.30;;;;;;;14.72;76.45;101161.04;93812;1195;80436;-63
2021/09/27 07:55:59;;;;;;;9.80;4.20;;;;;;;14.86;76.42;101162.60;93766;1195;100363;-62
2021/09/27 07:58:04;;;;;;;8.40;3.70;;;;;;;15.05;76.36;101158.54;93789;1195;86640;-65
2021/09/27 08:00:14;;;;;;;11.10;4.20;;;;;;;15.20;75.84;101161.02;93753;1180;93544;-61
2021/09/27 08:02:19;;;;;;;8.10;3.60;;;;;;;15.35;75.89;101164.34;93749;1195;79400;-61
2021/09/27 08:04:23;;;;;;;7.20;3.70;;;;;;;15.54;75.59;101162.72;93804;1195;81474;-60
2021/09/27 08:06:28;;;;;;;7.80;3.70;;;;;;;16.14;75.17;101157.38;93761;1195;100686;-61
2021/09/27 08:08:32;;;;;;;8.30;3.60;;;;;;;17.59;74.46;101156.92;93832;1195;87364;-59
2021/09/27 08:10:39;;;;;;;5.90;2.70;;;;;;;19.64;74.19;101149.98;93759;1195;92864;-65
2021/09/27 08:12:44;;;;;;;7.10;2.80;;;;;;;21.80;71.87;101144.00;93734;1196;79002;-63
2021/09/27 08:14:48;;;;;;;6.30;3.20;;;;;;;23.27;68.27;101141.52;93833;1195;82123;-63
2021/09/27 08:16:52;;;;;;;7.70;2.80;;;;;;;24.40;66.31;101141.60;93778;1195;99695;-64
2021/09/27 08:19:00;;;;;;;6.60;2.80;;;;;;;25.50;63.10;101139.31;93766;1196;86837;-63
2021/09/27 08:21:08;;;;;;;4.80;2.60;;;;;;;26.38;61.31;101141.54;93777;1195;94584;-64
2021/09/27 08:23:14;;;;;;;4.00;2.40;;;;;;;26.99;57.87;101133.69;93775;1195;78634;-64
2021/09/27 08:25:19;;;;;;;5.20;2.20;;;;;;;27.34;56.92;101133.98;93815;1195;80623;-64
2021/09/27 08:27:23;;;;;;;4.80;2.50;;;;;;;27.58;54.79;101132.48;93841;1195;98462;-65
2021/09/27 08:29:28;;;;;;;3.40;2.40;;;;;;;28.06;54.02;101136.96;93796;1195;87885;-65
2021/09/27 08:31:32;;;;;;;5.10;2.30;;;;;;;28.36;52.66;101133.83;93705;1195;94471;-65
2021/09/27 08:33:36;;;;;;;5.30;2.10;;;;;;;28.72;51.58;101135.94;93816;1195;78653;-65
2021/09/27 08:35:44;;;;;;;6.20;2.30;;;;;;;28.99;49.86;101134.57;93750;1195;82677;-72
2021/09/27 08:37:48;;;;;;;4.00;2.00;;;;;;;28.99;48.47;101139.41;93633;1196;100376;-66
2021/09/27 08:39:52;;;;;;;3.60;1.90;;;;;;;28.94;47.24;101133.29;93729;1196;87648;-59
2021/09/27 08:42:05;;;;;;;4.20;1.90;;;;;;;28.74;44.94;101137.36;93749;1195;94699;-59
2021/09/27 08:44:45;;;;;;;3.30;1.90;;;;;;;28.23;45.89;101134.60;93761;1195;80102;-59
2021/09/27 08:46:54;;;;;;;5.10;2.50;;;;;;;28.24;45.04;101132.74;93663;1196;82191;-58
2021/09/27 08:49:16;;;;;;;5.70;2.40;;;;;;;28.59;45.29;101134.27;93749;1188;98244;-59
2021/09/27 08:51:24;;;;;;;4.40;1.90;;;;;;;28.60;44.23;101136.16;93721;1195;86927;-59
2021/09/27 08:53:34;;;;;;;3.70;1.70;;;;;;;28.31;42.76;101135.64;93799;1195;94501;-59
2021/09/27 08:55:39;;;;;;;3.00;1.80;;;;;;;28.30;43.93;101141.55;93779;1195;78535;-64
2021/09/27 08:57:56;;;;;;;4.50;1.70;;;;;;;28.65;44.03;101142.05;93707;1196;80554;-65
2021/09/27 09:00:16;;;;;;;2.90;1.60;;;;;;;29.02;43.49;101141.29;93688;1196;98821;-59
2021/09/27 09:02:51;;;;;;;4.10;1.80;;;;;;;29.45;43.21;101136.05;93681;1196;88295;-58
2021/09/27 09:05:09;;;;;;;2.90;1.50;;;;;;;29.31;42.35;101132.33;93738;1196;94588;-66
2021/09/27 09:07:19;;;;;;;2.70;1.50;;;;;;;29.43;42.26;101132.34;93797;1196;78621;-64
2021/09/27 09:09:37;;;;;;;4.50;1.70;;;;;;;29.37;40.38;101133.73;93847;1195;82075;-59
2021/09/27 09:11:52;;;;;;;3.00;1.70;;;;;;;29.00;40.29;101130.40;93789;1195;97308;-59
2021/09/27 09:14:08;;;;;;;4.90;1.70;;;;;;;28.81;40.30;101126.35;93856;1195;86560;-60
2021/09/27 09:16:17;;;;;;;3.20;1.70;;;;;;;28.86;40.37;101125.75;93800;1195;94297;-58
2021/09/27 09:18:31;;;;;;;4.20;1.80;;;;;;;28.57;39.20;101130.84;93808;1195;79358;-59
2021/09/27 09:20:45;;;;;;;4.20;1.90;;;;;;;28.55;39.90;101126.11;93809;1195;81258;-59
2021/09/27 09:22:51;;;;;;;4.80;1.90;;;;;;;28.66;39.64;101131.55;93835;1195;99454;-59
2021/09/27 09:24:56;;;;;;;3.80;1.80;;;;;;;28.58;39.23;101129.26;93788;1195;87981;-58
2021/09/27 09:27:05;;;;;;;3.50;1.40;;;;;;;28.62;39.35;101131.63;93731;1196;94570;-58
2021/09/27 09:29:10;;;;;;;4.70;1.70;;;;;;;28.37;39.19;101132.10;93841;1195;79647;-63
2021/09/27 09:31:20;;;;;;;2.80;1.40;;;;;;;28.33;39.68;101129.23;93901;1195;81540;-63
2021/09/27 09:33:45;;;;;;;3.60;1.60;;;;;;;28.24;39.69;101131.36;93833;1195;99636;-63
2021/09/27 09:35:56;;;;;;;2.40;1.60;;;;;;;27.92;38.97;101129.70;93830;1195;87626;-58
2021/09/27 09:38:08;;;;;;;4.00;1.60;;;;;;;27.70;39.12;101128.55;93832;1195;94298;-61
2021/09/27 09:40:21;;;;;;;3.50;1.40;;;;;;;27.74;39.68;101128.73;93816;1195;78184;-59
2021/09/27 09:42:32;;;;;;;3.00;1.40;;;;;;;27.55;38.03;101127.04;93805;1195;82133;-59
2021/09/27 09:44:41;;;;;;;2.90;1.50;;;;;;;26.41;37.94;101132.16;93774;1195;98648;-59
2021/09/27 09:46:56;;;;;;;2.40;1.50;;;;;;;25.68;39.12;101126.11;93809;1195;87995;-59
2021/09/27 09:49:08;;;;;;;4.70;1.70;;;;;;;24.87;39.89;101120.00;93805;1195;94621;-59
2021/09/27 09:51:32;;;;;;;4.50;1.60;;;;;;;24.44;40.33;101123.98;93801;1195;78997;-60
2021/09/27 09:53:38;;;;;;;5.40;1.70;;;;;;;23.41;40.89;101122.58;93836;1195;81986;-59
2021/09/27 09:55:54;;;;;;;3.40;1.70;;;;;;;22.83;41.62;101122.95;93830;1195;100191;-58
2021/09/27 09:58:04;;;;;;;5.10;1.50;;;;;;;22.23;42.80;101121.38;93857;1196;87819;-59
2021/09/27 10:00:19;;;;;;;7.20;2.20;;;;;;;21.77;43.66;101119.40;93793;1195;94655;-59
2021/09/27 10:02:28;;;;;;;4.50;1.60;;;;;;;21.55;44.46;101119.54;93819;1195;79910;-59
2021/09/27 10:04:41;;;;;;;3.80;1.60;;;;;;;21.24;45.04;101120.15;93774;1195;79988;-65
2021/09/27 10:06:58;;;;;;;3.20;1.40;;;;;;;20.92;45.82;101113.91;93770;1195;100062;-67
2021/09/27 10:09:06;;;;;;;8.40;2.20;;;;;;;20.82;46.32;101108.40;93815;1195;87398;-66
2021/09/27 10:11:23;;;;;;;2.60;1.50;;;;;;;20.77;47.16;101105.41;93829;1195;92930;-65
2021/09/27 10:13:43;;;;;;;3.90;1.80;;;;;;;20.71;47.26;101107.42;93809;1195;79069;-65
2021/09/27 10:15:50;;;;;;;4.40;1.40;;;;;;;20.54;47.40;101100.21;93789;1195;82451;-59
2021/09/27 10:18:01;;;;;;;4.30;1.40;;;;;;;20.42;47.61;101101.39;93829;1195;98572;-59
2021/09/27 10:20:15;;;;;;;4.00;1.50;;;;;;;20.30;47.97;101108.55;93864;1195;87046;-60
2021/09/27 10:22:25;;;;;;;4.60;1.70;;;;;;;20.06;48.14;101105.82;93784;1195;93881;-59